Terminal Aerodrome Forecast
Issued by NWS

Home | Current Version | Previous Version | Text Only | Print | Product List | Glossary On
Versions: 1 2 3 4 5 6 7 8 9 10 11 12 13 14 15 16 17 18 19 20 21 22 23 24 25 26 27 28 29
305
FTUS43 KDLH 231137
TAFHIB
TAF
KHIB 231137Z 2312/2412 15013G18KT P6SM OVC060
     FM231900 17009KT P6SM VCSH OVC015
     FM232100 17008KT 3SM -RA OVC010
     FM232300 17006KT 3SM -RA OVC008
     FM240400 00000KT 3SM -SN OVC003
     FM240600 00000KT P6SM OVC003=

USA.gov is the U.S. government's official web portal to all federal, state and local government web resources and services.